sensor_id;sensor_type;location;lat;lon;timestamp;temperature;humidity
3186;DHT22;1604;53.700;10.252;2023-05-10T00:02:10;13.70;72.30
3186;DHT22;1604;53.700;10.252;2023-05-10T00:05:12;13.70;72.40
3186;DHT22;1604;53.700;10.252;2023-05-10T00:08:14;13.70;72.40
3186;DHT22;1604;53.700;10.252;2023-05-10T00:11:16;13.70;72.50
3186;DHT22;1604;53.700;10.252;2023-05-10T00:14:19;13.60;72.70
3186;DHT22;1604;53.700;10.252;2023-05-10T00:17:21;13.60;73.00
3186;DHT22;1604;53.700;10.252;2023-05-10T00:20:23;13.60;72.70
3186;DHT22;1604;53.700;10.252;2023-05-10T00:23:25;13.60;72.90
3186;DHT22;1604;53.700;10.252;2023-05-10T00:26:27;13.50;73.00
3186;DHT22;1604;53.700;10.252;2023-05-10T00:29:30;13.50;73.20
3186;DHT22;1604;53.700;10.252;2023-05-10T00:32:34;13.40;73.70
3186;DHT22;1604;53.700;10.252;2023-05-10T00:35:36;13.40;73.50
3186;DHT22;1604;53.700;10.252;2023-05-10T00:38:38;13.40;73.70
3186;DHT22;1604;53.700;10.252;2023-05-10T00:41:40;13.30;74.10
3186;DHT22;1604;53.700;10.252;2023-05-10T00:44:44;13.40;73.80
3186;DHT22;1604;53.700;10.252;2023-05-10T00:47:47;13.40;73.90
3186;DHT22;1604;53.700;10.252;2023-05-10T00:50:52;13.30;74.10
3186;DHT22;1604;53.700;10.252;2023-05-10T00:53:55;13.30;74.30
3186;DHT22;1604;53.700;10.252;2023-05-10T00:56:57;13.20;74.80
3186;DHT22;1604;53.700;10.252;2023-05-10T01:00:02;13.20;74.90
3186;DHT22;1604;53.700;10.252;2023-05-10T01:03:04;13.10;74.90
3186;DHT22;1604;53.700;10.252;2023-05-10T01:06:06;13.10;75.00
3186;DHT22;1604;53.700;10.252;2023-05-10T01:09:10;13.10;75.20
3186;DHT22;1604;53.700;10.252;2023-05-10T01:12:14;13.10;75.30
3186;DHT22;1604;53.700;10.252;2023-05-10T01:15:18;13.00;75.60
3186;DHT22;1604;53.700;10.252;2023-05-10T01:18:21;13.00;75.80
3186;DHT22;1604;53.700;10.252;2023-05-10T01:21:30;13.00;76.10
3186;DHT22;1604;53.700;10.252;2023-05-10T01:25:11;13.00;76.10
3186;DHT22;1604;53.700;10.252;2023-05-10T01:35:33;12.90;76.60
3186;DHT22;1604;53.700;10.252;2023-05-10T01:38:42;12.80;77.10
3186;DHT22;1604;53.700;10.252;2023-05-10T01:41:51;12.80;77.30
3186;DHT22;1604;53.700;10.252;2023-05-10T01:44:58;12.80;77.30
3186;DHT22;1604;53.700;10.252;2023-05-10T01:48:07;12.70;77.90
3186;DHT22;1604;53.700;10.252;2023-05-10T01:51:10;12.70;78.40
3186;DHT22;1604;53.700;10.252;2023-05-10T01:54:13;12.60;78.60
3186;DHT22;1604;53.700;10.252;2023-05-10T01:57:20;12.60;78.50
3186;DHT22;1604;53.700;10.252;2023-05-10T02:00:23;12.60;78.80
3186;DHT22;1604;53.700;10.252;2023-05-10T02:03:28;12.60;78.80
3186;DHT22;1604;53.700;10.252;2023-05-10T02:06:32;12.60;78.80
3186;DHT22;1604;53.700;10.252;2023-05-10T02:09:35;12.60;79.00
3186;DHT22;1604;53.700;10.252;2023-05-10T02:12:42;12.60;79.10
3186;DHT22;1604;53.700;10.252;2023-05-10T02:15:47;12.50;79.50
3186;DHT22;1604;53.700;10.252;2023-05-10T02:18:51;12.50;79.90
3186;DHT22;1604;53.700;10.252;2023-05-10T02:21:55;12.50;80.20
3186;DHT22;1604;53.700;10.252;2023-05-10T02:24:59;12.40;80.50
3186;DHT22;1604;53.700;10.252;2023-05-10T02:28:05;12.40;81.00
3186;DHT22;1604;53.700;10.252;2023-05-10T02:31:08;12.30;81.00
3186;DHT22;1604;53.700;10.252;2023-05-10T02:34:13;12.40;81.10
3186;DHT22;1604;53.700;10.252;2023-05-10T02:37:16;12.30;81.20
3186;DHT22;1604;53.700;10.252;2023-05-10T02:40:19;12.30;81.30
3186;DHT22;1604;53.700;10.252;2023-05-10T02:43:23;12.30;81.80
3186;DHT22;1604;53.700;10.252;2023-05-10T02:46:26;12.20;81.90
3186;DHT22;1604;53.700;10.252;2023-05-10T02:49:29;12.20;82.00
3186;DHT22;1604;53.700;10.252;2023-05-10T02:52:39;12.20;82.20
3186;DHT22;1604;53.700;10.252;2023-05-10T03:05:14;12.10;83.30
3186;DHT22;1604;53.700;10.252;2023-05-10T03:08:16;12.10;83.20
3186;DHT22;1604;53.700;10.252;2023-05-10T03:11:32;12.10;83.40
3186;DHT22;1604;53.700;10.252;2023-05-10T03:14:45;12.00;83.70
3186;DHT22;1604;53.700;10.252;2023-05-10T03:17:54;12.00;84.00
3186;DHT22;1604;53.700;10.252;2023-05-10T03:21:02;11.90;84.20
3186;DHT22;1604;53.700;10.252;2023-05-10T03:24:07;11.90;84.20
3186;DHT22;1604;53.700;10.252;2023-05-10T03:27:13;11.90;84.50
3186;DHT22;1604;53.700;10.252;2023-05-10T03:30:16;11.90;84.80
3186;DHT22;1604;53.700;10.252;2023-05-10T03:33:18;11.90;84.60
3186;DHT22;1604;53.700;10.252;2023-05-10T03:36:22;11.90;84.70
3186;DHT22;1604;53.700;10.252;2023-05-10T03:39:23;11.90;85.00
3186;DHT22;1604;53.700;10.252;2023-05-10T03:42:25;11.80;85.00
3186;DHT22;1604;53.700;10.252;2023-05-10T03:45:27;11.80;85.20
3186;DHT22;1604;53.700;10.252;2023-05-10T03:48:30;11.70;85.80
3186;DHT22;1604;53.700;10.252;2023-05-10T03:51:37;11.70;86.10
3186;DHT22;1604;53.700;10.252;2023-05-10T03:54:39;11.70;86.20
3186;DHT22;1604;53.700;10.252;2023-05-10T03:57:41;11.70;86.30
3186;DHT22;1604;53.700;10.252;2023-05-10T04:00:43;11.70;86.20
3186;DHT22;1604;53.700;10.252;2023-05-10T04:03:46;11.70;86.60
3186;DHT22;1604;53.700;10.252;2023-05-10T04:06:49;11.60;86.70
3186;DHT22;1604;53.700;10.252;2023-05-10T04:09:51;11.60;87.00
3186;DHT22;1604;53.700;10.252;2023-05-10T04:12:53;11.60;87.20
3186;DHT22;1604;53.700;10.252;2023-05-10T04:15:55;11.60;87.20
3186;DHT22;1604;53.700;10.252;2023-05-10T04:18:57;11.60;87.20
3186;DHT22;1604;53.700;10.252;2023-05-10T04:22:02;11.60;87.40
3186;DHT22;1604;53.700;10.252;2023-05-10T04:25:05;11.60;87.60
3186;DHT22;1604;53.700;10.252;2023-05-10T04:28:07;11.70;87.60
3186;DHT22;1604;53.700;10.252;2023-05-10T04:31:10;11.70;87.60
3186;DHT22;1604;53.700;10.252;2023-05-10T04:34:12;11.70;87.80
3186;DHT22;1604;53.700;10.252;2023-05-10T04:37:18;11.80;87.50
3186;DHT22;1604;53.700;10.252;2023-05-10T04:40:20;11.90;86.70
3186;DHT22;1604;53.700;10.252;2023-05-10T04:43:22;11.90;86.50
3186;DHT22;1604;53.700;10.252;2023-05-10T04:46:24;12.00;86.60
3186;DHT22;1604;53.700;10.252;2023-05-10T04:49:26;12.00;86.60
3186;DHT22;1604;53.700;10.252;2023-05-10T04:52:29;12.00;86.70
3186;DHT22;1604;53.700;10.252;2023-05-10T04:55:31;12.00;86.70
3186;DHT22;1604;53.700;10.252;2023-05-10T04:58:33;12.00;87.10
3186;DHT22;1604;53.700;10.252;2023-05-10T05:01:35;12.00;87.30
3186;DHT22;1604;53.700;10.252;2023-05-10T05:04:37;12.00;87.30
3186;DHT22;1604;53.700;10.252;2023-05-10T05:07:40;12.00;87.30
3186;DHT22;1604;53.700;10.252;2023-05-10T05:10:42;12.10;87.00
3186;DHT22;1604;53.700;10.252;2023-05-10T05:13:44;12.10;87.30
3186;DHT22;1604;53.700;10.252;2023-05-10T05:16:47;12.20;87.30
3186;DHT22;1604;53.700;10.252;2023-05-10T05:19:49;12.40;86.80
3186;DHT22;1604;53.700;10.252;2023-05-10T05:22:52;12.50;85.80
3186;DHT22;1604;53.700;10.252;2023-05-10T05:25:54;12.60;85.60
3186;DHT22;1604;53.700;10.252;2023-05-10T05:28:56;12.70;85.00
3186;DHT22;1604;53.700;10.252;2023-05-10T05:31:58;12.80;85.00
3186;DHT22;1604;53.700;10.252;2023-05-10T05:35:00;12.90;84.90
3186;DHT22;1604;53.700;10.252;2023-05-10T05:38:03;13.00;84.40
3186;DHT22;1604;53.700;10.252;2023-05-10T05:41:05;13.20;84.30
3186;DHT22;1604;53.700;10.252;2023-05-10T05:44:07;13.30;82.90
3186;DHT22;1604;53.700;10.252;2023-05-10T05:47:10;13.50;82.10
3186;DHT22;1604;53.700;10.252;2023-05-10T05:50:12;13.60;82.30
3186;DHT22;1604;53.700;10.252;2023-05-10T05:53:16;13.80;81.50
3186;DHT22;1604;53.700;10.252;2023-05-10T05:56:18;13.90;81.70
3186;DHT22;1604;53.700;10.252;2023-05-10T05:59:24;14.10;79.60
3186;DHT22;1604;53.700;10.252;2023-05-10T06:02:26;14.20;78.60
3186;DHT22;1604;53.700;10.252;2023-05-10T06:05:28;14.30;79.10
3186;DHT22;1604;53.700;10.252;2023-05-10T06:08:32;14.40;77.60
3186;DHT22;1604;53.700;10.252;2023-05-10T06:11:34;14.30;78.60
3186;DHT22;1604;53.700;10.252;2023-05-10T06:14:36;14.50;78.40
3186;DHT22;1604;53.700;10.252;2023-05-10T06:17:38;14.60;77.90
3186;DHT22;1604;53.700;10.252;2023-05-10T06:20:41;14.80;76.80
3186;DHT22;1604;53.700;10.252;2023-05-10T06:23:45;15.00;75.80
3186;DHT22;1604;53.700;10.252;2023-05-10T06:26:47;14.90;75.80
3186;DHT22;1604;53.700;10.252;2023-05-10T06:29:50;14.90;75.80
3186;DHT22;1604;53.700;10.252;2023-05-10T06:32:52;14.90;75.20
3186;DHT22;1604;53.700;10.252;2023-05-10T06:35:54;14.90;75.90
3186;DHT22;1604;53.700;10.252;2023-05-10T06:38:58;15.00;75.90
3186;DHT22;1604;53.700;10.252;2023-05-10T06:41:59;15.00;76.60
3186;DHT22;1604;53.700;10.252;2023-05-10T06:45:03;15.00;75.50
3186;DHT22;1604;53.700;10.252;2023-05-10T06:48:08;15.00;75.50
3186;DHT22;1604;53.700;10.252;2023-05-10T06:51:10;15.00;75.70
3186;DHT22;1604;53.700;10.252;2023-05-10T06:54:13;14.90;76.40
3186;DHT22;1604;53.700;10.252;2023-05-10T06:57:15;15.00;76.90
3186;DHT22;1604;53.700;10.252;2023-05-10T07:00:19;15.00;77.40
3186;DHT22;1604;53.700;10.252;2023-05-10T07:03:21;15.10;77.60
3186;DHT22;1604;53.700;10.252;2023-05-10T07:06:23;15.30;76.40
3186;DHT22;1604;53.700;10.252;2023-05-10T07:09:26;15.50;75.20
3186;DHT22;1604;53.700;10.252;2023-05-10T07:12:28;15.70;74.90
3186;DHT22;1604;53.700;10.252;2023-05-10T07:15:30;15.80;73.90
3186;DHT22;1604;53.700;10.252;2023-05-10T07:18:32;16.00;73.60
3186;DHT22;1604;53.700;10.252;2023-05-10T07:21:34;16.30;72.30
3186;DHT22;1604;53.700;10.252;2023-05-10T07:24:38;16.30;72.50
3186;DHT22;1604;53.700;10.252;2023-05-10T07:27:40;16.50;71.80
3186;DHT22;1604;53.700;10.252;2023-05-10T07:30:42;16.60;71.70
3186;DHT22;1604;53.700;10.252;2023-05-10T07:33:44;16.70;71.10
3186;DHT22;1604;53.700;10.252;2023-05-10T07:36:46;16.80;72.00
3186;DHT22;1604;53.700;10.252;2023-05-10T07:39:49;17.00;70.60
3186;DHT22;1604;53.700;10.252;2023-05-10T07:42:51;17.00;69.30
3186;DHT22;1604;53.700;10.252;2023-05-10T07:45:53;17.10;69.80
3186;DHT22;1604;53.700;10.252;2023-05-10T07:48:55;17.00;70.30
3186;DHT22;1604;53.700;10.252;2023-05-10T07:51:57;17.00;70.00
3186;DHT22;1604;53.700;10.252;2023-05-10T07:55:00;17.00;71.10
3186;DHT22;1604;53.700;10.252;2023-05-10T07:58:02;17.00;71.00
3186;DHT22;1604;53.700;10.252;2023-05-10T08:01:04;17.20;69.90
3186;DHT22;1604;53.700;10.252;2023-05-10T08:04:06;17.30;69.50
3186;DHT22;1604;53.700;10.252;2023-05-10T08:07:10;17.30;69.30
3186;DHT22;1604;53.700;10.252;2023-05-10T08:10:13;17.30;68.90
3186;DHT22;1604;53.700;10.252;2023-05-10T08:13:15;17.20;70.20
3186;DHT22;1604;53.700;10.252;2023-05-10T08:16:18;17.30;70.10
3186;DHT22;1604;53.700;10.252;2023-05-10T08:19:20;17.30;69.90
3186;DHT22;1604;53.700;10.252;2023-05-10T08:22:23;17.40;70.60
3186;DHT22;1604;53.700;10.252;2023-05-10T08:25:26;17.50;69.30
3186;DHT22;1604;53.700;10.252;2023-05-10T08:28:31;17.60;69.10
3186;DHT22;1604;53.700;10.252;2023-05-10T08:31:33;17.60;69.10
3186;DHT22;1604;53.700;10.252;2023-05-10T08:34:35;17.60;69.90
3186;DHT22;1604;53.700;10.252;2023-05-10T08:37:37;17.80;68.90
3186;DHT22;1604;53.700;10.252;2023-05-10T08:40:42;17.80;69.10
3186;DHT22;1604;53.700;10.252;2023-05-10T08:43:45;17.80;69.30
3186;DHT22;1604;53.700;10.252;2023-05-10T08:46:51;17.90;69.90
3186;DHT22;1604;53.700;10.252;2023-05-10T08:49:55;17.90;70.80
3186;DHT22;1604;53.700;10.252;2023-05-10T08:53:00;17.90;70.70
3186;DHT22;1604;53.700;10.252;2023-05-10T08:56:07;18.10;72.60
3186;DHT22;1604;53.700;10.252;2023-05-10T08:59:09;18.50;70.50
3186;DHT22;1604;53.700;10.252;2023-05-10T09:02:13;18.70;68.30
3186;DHT22;1604;53.700;10.252;2023-05-10T09:05:15;18.80;66.90
3186;DHT22;1604;53.700;10.252;2023-05-10T09:08:18;19.00;67.10
3186;DHT22;1604;53.700;10.252;2023-05-10T09:11:22;19.20;66.20
3186;DHT22;1604;53.700;10.252;2023-05-10T09:14:25;19.30;68.10
3186;DHT22;1604;53.700;10.252;2023-05-10T09:17:29;19.30;67.40
3186;DHT22;1604;53.700;10.252;2023-05-10T09:20:31;19.30;66.00
3186;DHT22;1604;53.700;10.252;2023-05-10T09:23:33;19.50;66.10
3186;DHT22;1604;53.700;10.252;2023-05-10T09:26:45;19.50;66.20
3186;DHT22;1604;53.700;10.252;2023-05-10T09:29:48;19.50;66.60
3186;DHT22;1604;53.700;10.252;2023-05-10T09:32:55;19.50;66.50
3186;DHT22;1604;53.700;10.252;2023-05-10T09:36:06;19.50;67.60
3186;DHT22;1604;53.700;10.252;2023-05-10T09:39:12;19.40;67.40
3186;DHT22;1604;53.700;10.252;2023-05-10T09:42:23;19.30;68.90
3186;DHT22;1604;53.700;10.252;2023-05-10T09:45:26;19.30;67.60
3186;DHT22;1604;53.700;10.252;2023-05-10T09:48:28;19.20;68.60
3186;DHT22;1604;53.700;10.252;2023-05-10T09:51:30;19.20;69.50
3186;DHT22;1604;53.700;10.252;2023-05-10T09:54:33;19.20;70.10
3186;DHT22;1604;53.700;10.252;2023-05-10T09:57:37;19.20;68.70
3186;DHT22;1604;53.700;10.252;2023-05-10T10:00:41;19.20;68.20
3186;DHT22;1604;53.700;10.252;2023-05-10T10:03:43;19.30;68.90
3186;DHT22;1604;53.700;10.252;2023-05-10T10:06:45;19.40;66.90
3186;DHT22;1604;53.700;10.252;2023-05-10T10:09:47;19.50;67.20
3186;DHT22;1604;53.700;10.252;2023-05-10T10:12:51;19.50;67.70
3186;DHT22;1604;53.700;10.252;2023-05-10T10:15:54;19.30;69.00
3186;DHT22;1604;53.700;10.252;2023-05-10T10:18:56;19.30;68.30
3186;DHT22;1604;53.700;10.252;2023-05-10T10:21:58;19.30;67.20
3186;DHT22;1604;53.700;10.252;2023-05-10T10:25:00;19.10;69.10
3186;DHT22;1604;53.700;10.252;2023-05-10T10:28:23;18.90;69.90
3186;DHT22;1604;53.700;10.252;2023-05-10T10:31:32;18.80;69.80
3186;DHT22;1604;53.700;10.252;2023-05-10T10:34:36;18.50;71.40
3186;DHT22;1604;53.700;10.252;2023-05-10T10:37:44;18.40;71.90
3186;DHT22;1604;53.700;10.252;2023-05-10T10:40:46;18.20;72.80
3186;DHT22;1604;53.700;10.252;2023-05-10T10:47:42;17.80;77.10
3186;DHT22;1604;53.700;10.252;2023-05-10T10:50:45;17.60;79.20
3186;DHT22;1604;53.700;10.252;2023-05-10T10:53:48;17.40;80.30
3186;DHT22;1604;53.700;10.252;2023-05-10T10:57:11;17.30;81.00
3186;DHT22;1604;53.700;10.252;2023-05-10T11:00:26;17.30;80.60
3186;DHT22;1604;53.700;10.252;2023-05-10T11:03:29;17.30;81.70
3186;DHT22;1604;53.700;10.252;2023-05-10T11:06:31;17.20;83.20
3186;DHT22;1604;53.700;10.252;2023-05-10T11:09:39;17.10;84.50
3186;DHT22;1604;53.700;10.252;2023-05-10T11:12:52;16.90;87.00
3186;DHT22;1604;53.700;10.252;2023-05-10T11:15:56;16.80;89.70
3186;DHT22;1604;53.700;10.252;2023-05-10T11:19:02;16.60;93.70
3186;DHT22;1604;53.700;10.252;2023-05-10T11:22:13;16.40;96.00
3186;DHT22;1604;53.700;10.252;2023-05-10T11:25:18;16.20;97.20
3186;DHT22;1604;53.700;10.252;2023-05-10T11:28:21;16.00;98.60
3186;DHT22;1604;53.700;10.252;2023-05-10T11:31:26;15.80;99.20
3186;DHT22;1604;53.700;10.252;2023-05-10T11:34:30;15.70;99.90
3186;DHT22;1604;53.700;10.252;2023-05-10T11:37:34;15.60;99.90
3186;DHT22;1604;53.700;10.252;2023-05-10T11:40:36;15.50;99.90
3186;DHT22;1604;53.700;10.252;2023-05-10T11:43:39;15.50;99.90
3186;DHT22;1604;53.700;10.252;2023-05-10T11:46:44;15.40;99.90
3186;DHT22;1604;53.700;10.252;2023-05-10T11:49:47;15.50;99.90
3186;DHT22;1604;53.700;10.252;2023-05-10T11:52:51;15.50;99.90
3186;DHT22;1604;53.700;10.252;2023-05-10T11:55:53;15.50;99.90
3186;DHT22;1604;53.700;10.252;2023-05-10T11:58:56;15.50;99.90
3186;DHT22;1604;53.700;10.252;2023-05-10T12:02:00;15.50;99.90
3186;DHT22;1604;53.700;10.252;2023-05-10T12:05:03;15.50;99.90
3186;DHT22;1604;53.700;10.252;2023-05-10T12:08:12;15.60;99.90
3186;DHT22;1604;53.700;10.252;2023-05-10T12:11:14;15.70;99.90
3186;DHT22;1604;53.700;10.252;2023-05-10T12:14:18;15.70;99.90
3186;DHT22;1604;53.700;10.252;2023-05-10T12:17:27;15.60;99.90
3186;DHT22;1604;53.700;10.252;2023-05-10T12:20:29;15.60;99.90
3186;DHT22;1604;53.700;10.252;2023-05-10T12:23:31;15.60;99.90
3186;DHT22;1604;53.700;10.252;2023-05-10T12:26:35;15.70;99.90
3186;DHT22;1604;53.700;10.252;2023-05-10T12:29:41;15.70;99.90
3186;DHT22;1604;53.700;10.252;2023-05-10T12:32:46;15.90;99.90
3186;DHT22;1604;53.700;10.252;2023-05-10T12:35:49;15.90;99.90
3186;DHT22;1604;53.700;10.252;2023-05-10T12:39:02;15.80;99.90
3186;DHT22;1604;53.700;10.252;2023-05-10T12:42:05;15.80;99.90
3186;DHT22;1604;53.700;10.252;2023-05-10T12:45:08;15.90;99.90
3186;DHT22;1604;53.700;10.252;2023-05-10T12:48:12;16.00;99.90
3186;DHT22;1604;53.700;10.252;2023-05-10T12:51:14;16.00;99.90
3186;DHT22;1604;53.700;10.252;2023-05-10T12:54:19;16.10;99.90
3186;DHT22;1604;53.700;10.252;2023-05-10T12:57:21;16.20;99.90
3186;DHT22;1604;53.700;10.252;2023-05-10T13:00:24;16.10;99.90
3186;DHT22;1604;53.700;10.252;2023-05-10T13:03:29;16.10;99.90
3186;DHT22;1604;53.700;10.252;2023-05-10T13:06:31;16.00;99.90
3186;DHT22;1604;53.700;10.252;2023-05-10T13:09:33;16.00;99.90
3186;DHT22;1604;53.700;10.252;2023-05-10T13:12:35;16.00;99.90
3186;DHT22;1604;53.700;10.252;2023-05-10T13:15:37;15.90;99.90
3186;DHT22;1604;53.700;10.252;2023-05-10T13:18:41;15.90;99.90
3186;DHT22;1604;53.700;10.252;2023-05-10T13:21:43;15.90;99.90
3186;DHT22;1604;53.700;10.252;2023-05-10T13:24:47;15.90;99.90
3186;DHT22;1604;53.700;10.252;2023-05-10T13:27:49;15.90;99.90
3186;DHT22;1604;53.700;10.252;2023-05-10T13:30:51;15.90;99.90
3186;DHT22;1604;53.700;10.252;2023-05-10T13:33:55;15.90;99.90
3186;DHT22;1604;53.700;10.252;2023-05-10T13:36:57;15.90;99.90
3186;DHT22;1604;53.700;10.252;2023-05-10T13:39:58;15.80;99.90
3186;DHT22;1604;53.700;10.252;2023-05-10T13:43:01;15.90;99.90
3186;DHT22;1604;53.700;10.252;2023-05-10T13:46:04;15.90;99.90
3186;DHT22;1604;53.700;10.252;2023-05-10T13:49:11;15.90;99.90
3186;DHT22;1604;53.700;10.252;2023-05-10T13:52:14;15.90;99.90
3186;DHT22;1604;53.700;10.252;2023-05-10T13:55:15;15.90;99.90
3186;DHT22;1604;53.700;10.252;2023-05-10T13:58:17;16.00;99.90
3186;DHT22;1604;53.700;10.252;2023-05-10T14:01:19;16.00;99.90
3186;DHT22;1604;53.700;10.252;2023-05-10T14:04:23;16.10;99.90
3186;DHT22;1604;53.700;10.252;2023-05-10T14:07:24;16.20;99.90
3186;DHT22;1604;53.700;10.252;2023-05-10T14:10:27;16.40;99.90
3186;DHT22;1604;53.700;10.252;2023-05-10T14:13:29;16.40;99.90
3186;DHT22;1604;53.700;10.252;2023-05-10T14:16:30;16.50;99.90
3186;DHT22;1604;53.700;10.252;2023-05-10T14:19:34;16.60;99.90
3186;DHT22;1604;53.700;10.252;2023-05-10T14:22:36;16.60;99.90
3186;DHT22;1604;53.700;10.252;2023-05-10T14:25:39;16.70;99.90
3186;DHT22;1604;53.700;10.252;2023-05-10T14:28:41;16.80;99.90
3186;DHT22;1604;53.700;10.252;2023-05-10T14:31:43;16.90;99.90
3186;DHT22;1604;53.700;10.252;2023-05-10T14:34:46;17.00;99.90
3186;DHT22;1604;53.700;10.252;2023-05-10T14:37:48;17.10;99.90
3186;DHT22;1604;53.700;10.252;2023-05-10T14:40:50;17.30;99.90
3186;DHT22;1604;53.700;10.252;2023-05-10T14:43:53;17.30;99.80
3186;DHT22;1604;53.700;10.252;2023-05-10T14:46:55;17.30;99.70
3186;DHT22;1604;53.700;10.252;2023-05-10T14:49:58;17.30;99.50
3186;DHT22;1604;53.700;10.252;2023-05-10T14:53:00;17.40;99.60
3186;DHT22;1604;53.700;10.252;2023-05-10T14:56:02;17.50;99.70
3186;DHT22;1604;53.700;10.252;2023-05-10T14:59:04;17.60;99.40
3186;DHT22;1604;53.700;10.252;2023-05-10T15:02:06;17.70;99.20
3186;DHT22;1604;53.700;10.252;2023-05-10T15:05:11;17.80;99.00
3186;DHT22;1604;53.700;10.252;2023-05-10T15:08:13;17.80;99.00
3186;DHT22;1604;53.700;10.252;2023-05-10T15:11:15;18.00;98.80
3186;DHT22;1604;53.700;10.252;2023-05-10T15:14:17;18.00;98.40
3186;DHT22;1604;53.700;10.252;2023-05-10T15:17:19;18.10;97.80
3186;DHT22;1604;53.700;10.252;2023-05-10T15:20:22;18.10;98.20
3186;DHT22;1604;53.700;10.252;2023-05-10T15:23:24;18.10;98.10
3186;DHT22;1604;53.700;10.252;2023-05-10T15:26:26;18.10;98.10
3186;DHT22;1604;53.700;10.252;2023-05-10T15:29:27;18.10;97.90
3186;DHT22;1604;53.700;10.252;2023-05-10T15:32:30;18.10;97.60
3186;DHT22;1604;53.700;10.252;2023-05-10T15:35:33;18.20;98.00
3186;DHT22;1604;53.700;10.252;2023-05-10T15:38:36;18.20;97.90
3186;DHT22;1604;53.700;10.252;2023-05-10T15:41:40;18.20;97.70
3186;DHT22;1604;53.700;10.252;2023-05-10T15:44:44;18.20;97.20
3186;DHT22;1604;53.700;10.252;2023-05-10T15:47:50;18.20;97.60
3186;DHT22;1604;53.700;10.252;2023-05-10T15:50:54;18.20;97.60
3186;DHT22;1604;53.700;10.252;2023-05-10T15:53:57;18.20;97.20
3186;DHT22;1604;53.700;10.252;2023-05-10T15:56:59;18.20;96.80
3186;DHT22;1604;53.700;10.252;2023-05-10T16:00:02;18.20;96.30
3186;DHT22;1604;53.700;10.252;2023-05-10T16:03:05;18.20;96.10
3186;DHT22;1604;53.700;10.252;2023-05-10T16:06:08;18.20;96.30
3186;DHT22;1604;53.700;10.252;2023-05-10T16:09:11;18.20;95.70
3186;DHT22;1604;53.700;10.252;2023-05-10T16:12:12;18.20;96.20
3186;DHT22;1604;53.700;10.252;2023-05-10T16:15:14;18.10;96.40
3186;DHT22;1604;53.700;10.252;2023-05-10T16:18:17;18.10;97.00
3186;DHT22;1604;53.700;10.252;2023-05-10T16:21:20;18.10;96.60
3186;DHT22;1604;53.700;10.252;2023-05-10T16:24:22;18.00;96.40
3186;DHT22;1604;53.700;10.252;2023-05-10T16:27:24;18.10;95.90
3186;DHT22;1604;53.700;10.252;2023-05-10T17:05:23;17.60;98.20
3186;DHT22;1604;53.700;10.252;2023-05-10T17:08:25;17.60;98.30
3186;DHT22;1604;53.700;10.252;2023-05-10T17:11:27;17.50;98.40
3186;DHT22;1604;53.700;10.252;2023-05-10T17:14:29;17.50;98.30
3186;DHT22;1604;53.700;10.252;2023-05-10T17:17:31;17.40;98.40
3186;DHT22;1604;53.700;10.252;2023-05-10T17:20:34;17.40;98.60
3186;DHT22;1604;53.700;10.252;2023-05-10T17:23:36;17.20;99.40
3186;DHT22;1604;53.700;10.252;2023-05-10T17:26:39;17.10;99.90
3186;DHT22;1604;53.700;10.252;2023-05-10T17:29:41;17.00;99.90
3186;DHT22;1604;53.700;10.252;2023-05-10T17:32:42;16.80;99.90
3186;DHT22;1604;53.700;10.252;2023-05-10T17:35:46;16.70;99.90
3186;DHT22;1604;53.700;10.252;2023-05-10T17:38:48;16.50;99.90
3186;DHT22;1604;53.700;10.252;2023-05-10T17:41:50;16.50;99.90
3186;DHT22;1604;53.700;10.252;2023-05-10T17:44:52;16.40;99.90
3186;DHT22;1604;53.700;10.252;2023-05-10T17:47:54;16.40;99.90
3186;DHT22;1604;53.700;10.252;2023-05-10T17:50:58;16.40;99.90
3186;DHT22;1604;53.700;10.252;2023-05-10T17:53:59;16.30;99.90
3186;DHT22;1604;53.700;10.252;2023-05-10T17:57:02;16.20;99.90
3186;DHT22;1604;53.700;10.252;2023-05-10T18:00:05;16.10;99.90
3186;DHT22;1604;53.700;10.252;2023-05-10T18:03:10;16.10;99.90
3186;DHT22;1604;53.700;10.252;2023-05-10T18:06:14;16.10;99.90
3186;DHT22;1604;53.700;10.252;2023-05-10T18:09:16;16.00;99.90
3186;DHT22;1604;53.700;10.252;2023-05-10T18:12:20;16.00;99.90
3186;DHT22;1604;53.700;10.252;2023-05-10T18:15:22;15.90;99.90
3186;DHT22;1604;53.700;10.252;2023-05-10T18:18:24;15.90;99.90
3186;DHT22;1604;53.700;10.252;2023-05-10T18:21:27;15.80;99.90
3186;DHT22;1604;53.700;10.252;2023-05-10T18:24:29;15.80;99.90
3186;DHT22;1604;53.700;10.252;2023-05-10T18:27:31;15.70;99.90
3186;DHT22;1604;53.700;10.252;2023-05-10T18:30:33;15.70;99.90
3186;DHT22;1604;53.700;10.252;2023-05-10T18:33:35;15.60;99.90
3186;DHT22;1604;53.700;10.252;2023-05-10T18:36:39;15.60;99.90
3186;DHT22;1604;53.700;10.252;2023-05-10T18:39:43;15.60;99.90
3186;DHT22;1604;53.700;10.252;2023-05-10T18:42:45;15.60;99.90
3186;DHT22;1604;53.700;10.252;2023-05-10T18:45:50;15.50;99.90
3186;DHT22;1604;53.700;10.252;2023-05-10T18:48:52;15.50;99.90
3186;DHT22;1604;53.700;10.252;2023-05-10T18:51:55;15.50;99.90
3186;DHT22;1604;53.700;10.252;2023-05-10T18:54:57;15.40;99.90
3186;DHT22;1604;53.700;10.252;2023-05-10T18:58:00;15.40;99.90
3186;DHT22;1604;53.700;10.252;2023-05-10T19:01:02;15.40;99.90
3186;DHT22;1604;53.700;10.252;2023-05-10T19:04:04;15.20;99.90
3186;DHT22;1604;53.700;10.252;2023-05-10T19:07:07;15.10;99.90
3186;DHT22;1604;53.700;10.252;2023-05-10T19:10:10;14.90;99.90
3186;DHT22;1604;53.700;10.252;2023-05-10T19:13:13;14.80;99.90
3186;DHT22;1604;53.700;10.252;2023-05-10T19:16:15;14.60;99.90
3186;DHT22;1604;53.700;10.252;2023-05-10T19:19:17;14.50;99.90
3186;DHT22;1604;53.700;10.252;2023-05-10T19:22:21;14.40;99.90
3186;DHT22;1604;53.700;10.252;2023-05-10T19:25:23;14.30;99.90
3186;DHT22;1604;53.700;10.252;2023-05-10T19:28:28;14.30;99.90
3186;DHT22;1604;53.700;10.252;2023-05-10T19:31:30;14.20;99.90
3186;DHT22;1604;53.700;10.252;2023-05-10T19:34:33;14.20;99.90
3186;DHT22;1604;53.700;10.252;2023-05-10T19:37:36;14.10;99.90
3186;DHT22;1604;53.700;10.252;2023-05-10T19:40:38;14.00;99.90
3186;DHT22;1604;53.700;10.252;2023-05-10T19:43:40;13.90;99.90
3186;DHT22;1604;53.700;10.252;2023-05-10T19:46:42;13.90;99.90
3186;DHT22;1604;53.700;10.252;2023-05-10T19:49:45;13.90;99.90
3186;DHT22;1604;53.700;10.252;2023-05-10T19:52:48;13.90;99.90
3186;DHT22;1604;53.700;10.252;2023-05-10T19:55:51;13.80;99.90
3186;DHT22;1604;53.700;10.252;2023-05-10T19:58:53;13.80;99.90
3186;DHT22;1604;53.700;10.252;2023-05-10T20:11:27;13.70;99.90
3186;DHT22;1604;53.700;10.252;2023-05-10T20:14:29;13.70;99.90
3186;DHT22;1604;53.700;10.252;2023-05-10T20:17:33;13.60;99.90
3186;DHT22;1604;53.700;10.252;2023-05-10T20:20:35;13.60;99.90
3186;DHT22;1604;53.700;10.252;2023-05-10T20:23:37;13.50;99.90
3186;DHT22;1604;53.700;10.252;2023-05-10T20:26:41;13.50;99.90
3186;DHT22;1604;53.700;10.252;2023-05-10T20:29:43;13.40;99.90
3186;DHT22;1604;53.700;10.252;2023-05-10T20:32:45;13.40;99.90
3186;DHT22;1604;53.700;10.252;2023-05-10T20:35:47;13.30;99.90
3186;DHT22;1604;53.700;10.252;2023-05-10T20:38:50;13.20;99.90
3186;DHT22;1604;53.700;10.252;2023-05-10T20:41:54;13.20;99.90